Time;durP1;ratioP1;P1;durP2;ratioP2;P2;SDS_P1;SDS_P2;PMS_P1;PMS_P2;Temp;Humidity;BMP_temperature;BMP_pressure;BME280_temperature;BME280_humidity;BME280_pressure;Samples;Min_cycle;Max_cycle;Signal;HPM_P1;HPM_P2
2021/10/07 00:02:07;;;;;;;18.13;4.87;;;14.00;99.90;;;;;;5074231;28;20233;-82
2021/10/07 00:04:32;;;;;;;15.30;5.00;;;14.10;99.90;;;;;;5079903;28;20625;-82
2021/10/07 00:06:58;;;;;;;14.17;5.07;;;14.10;99.90;;;;;;5057779;28;20712;-84
2021/10/07 00:09:27;;;;;;;12.77;4.80;;;14.10;99.90;;;;;;5057325;28;20248;-83
2021/10/07 00:11:56;;;;;;;14.13;5.37;;;14.00;99.90;;;;;;5056210;28;20192;-82
2021/10/07 00:14:22;;;;;;;12.67;4.90;;;14.00;99.90;;;;;;5055883;28;20201;-83
2021/10/07 00:16:48;;;;;;;16.53;4.90;;;13.90;99.90;;;;;;5055938;28;20197;-83
2021/10/07 00:19:14;;;;;;;14.60;5.30;;;13.90;99.90;;;;;;5056239;28;20181;-83
2021/10/07 00:21:39;;;;;;;11.87;4.30;;;13.90;99.90;;;;;;5056115;28;20197;-84
2021/10/07 00:24:09;;;;;;;14.83;4.87;;;14.00;99.90;;;;;;5055489;28;20511;-84
2021/10/07 00:26:39;;;;;;;12.37;4.20;;;13.90;99.90;;;;;;5055423;28;20197;-86
2021/10/07 00:29:24;;;;;;;14.60;5.03;;;13.90;99.90;;;;;;5055307;28;20181;-83
2021/10/07 00:31:54;;;;;;;15.03;5.57;;;13.90;99.90;;;;;;5055547;28;20183;-83
2021/10/07 00:36:59;;;;;;;17.37;5.33;;;13.90;99.90;;;;;;5055292;28;20183;-85
2021/10/07 00:39:25;;;;;;;14.73;5.00;;;13.90;99.90;;;;;;5055374;28;20177;-84
2021/10/07 00:41:52;;;;;;;16.20;4.97;;;13.90;99.90;;;;;;5055197;28;20260;-85
2021/10/07 00:44:18;;;;;;;15.13;5.10;;;13.90;99.90;;;;;;5055135;28;20196;-83
2021/10/07 00:46:46;;;;;;;13.33;4.43;;;13.80;99.90;;;;;;5054640;28;20205;-86
2021/10/07 00:49:12;;;;;;;17.13;4.93;;;13.70;99.90;;;;;;5054918;28;20224;-83
2021/10/07 00:51:38;;;;;;;14.20;4.97;;;13.80;99.90;;;;;;5054914;28;20654;-84
2021/10/07 00:54:06;;;;;;;12.70;4.83;;;13.80;99.90;;;;;;5055218;28;20177;-84
2021/10/07 00:56:34;;;;;;;10.07;4.37;;;13.80;99.90;;;;;;5054697;28;20247;-83
2021/10/07 00:59:01;;;;;;;13.27;4.33;;;13.70;99.90;;;;;;5055036;28;20200;-82
2021/10/07 01:01:27;;;;;;;14.47;4.73;;;13.70;99.90;;;;;;5054725;28;20204;-84
2021/10/07 01:03:53;;;;;;;14.13;5.27;;;13.60;99.90;;;;;;5054653;28;20637;-83
2021/10/07 01:06:20;;;;;;;13.23;4.23;;;13.60;99.90;;;;;;5053361;28;20180;-82
2021/10/07 01:08:46;;;;;;;14.63;4.80;;;13.60;99.90;;;;;;5057181;28;20648;-81
2021/10/07 01:11:13;;;;;;;13.63;4.97;;;13.50;99.90;;;;;;5060406;28;20173;-82
2021/10/07 01:13:41;;;;;;;13.83;4.70;;;13.40;99.90;;;;;;5057535;28;20732;-81
2021/10/07 01:16:07;;;;;;;14.73;4.73;;;13.50;99.90;;;;;;5054955;28;20181;-84
2021/10/07 01:18:39;;;;;;;9.57;4.47;;;13.50;99.90;;;;;;5054553;28;20181;-83
2021/10/07 01:21:10;;;;;;;12.13;4.60;;;13.40;99.90;;;;;;5054325;28;20678;-83
2021/10/07 01:23:39;;;;;;;9.87;4.13;;;13.30;99.90;;;;;;5054022;28;20203;-84
2021/10/07 01:26:09;;;;;;;11.63;4.80;;;13.30;99.90;;;;;;5052938;28;20186;-84
2021/10/07 01:28:38;;;;;;;10.40;4.60;;;13.40;99.90;;;;;;5054031;28;20262;-84
2021/10/07 01:31:06;;;;;;;12.50;4.40;;;13.40;99.90;;;;;;5054386;28;20174;-84
2021/10/07 01:33:32;;;;;;;10.30;4.47;;;13.40;99.90;;;;;;5053979;28;20205;-85
2021/10/07 01:35:59;;;;;;;11.63;4.67;;;13.50;99.90;;;;;;5054225;28;20638;-84
2021/10/07 01:38:24;;;;;;;15.00;5.53;;;13.40;99.90;;;;;;5053913;28;20244;-86
2021/10/07 01:40:50;;;;;;;14.23;4.37;;;13.50;99.90;;;;;;5053659;28;20604;-84
2021/10/07 01:43:16;;;;;;;11.60;4.83;;;13.50;99.90;;;;;;5053915;28;20187;-83
2021/10/07 01:45:44;;;;;;;11.57;4.10;;;13.60;99.90;;;;;;5052692;28;20673;-84
2021/10/07 01:48:10;;;;;;;14.73;4.80;;;13.50;99.90;;;;;;5053845;28;20217;-85
2021/10/07 01:50:36;;;;;;;10.57;4.07;;;13.40;99.90;;;;;;5054678;28;20651;-84
2021/10/07 01:53:01;;;;;;;12.50;5.33;;;13.40;99.90;;;;;;5052794;28;20196;-84
2021/10/07 01:55:27;;;;;;;10.33;4.87;;;13.50;99.90;;;;;;5053721;28;20226;-83
2021/10/07 01:57:53;;;;;;;13.57;4.63;;;13.40;99.90;;;;;;5053379;28;20193;-84
2021/10/07 02:00:20;;;;;;;10.80;4.40;;;13.30;99.90;;;;;;5053090;28;20552;-84
2021/10/07 02:02:46;;;;;;;10.60;4.17;;;13.10;99.90;;;;;;5062194;28;20197;-83
2021/10/07 02:05:12;;;;;;;9.87;4.80;;;13.10;99.90;;;;;;5061059;28;20204;-85
2021/10/07 02:07:38;;;;;;;14.93;4.70;;;13.00;99.90;;;;;;5064127;28;20219;-83
2021/10/07 02:10:12;;;;;;;14.40;4.87;;;12.90;99.90;;;;;;5060260;28;20201;-85
2021/10/07 02:12:40;;;;;;;11.43;4.90;;;12.80;99.90;;;;;;5053923;28;20631;-84
2021/10/07 02:15:06;;;;;;;13.33;4.97;;;12.80;99.90;;;;;;5054093;28;20713;-84
2021/10/07 02:17:45;;;;;;;11.73;5.30;;;12.70;99.90;;;;;;5053630;28;20203;-84
2021/10/07 02:20:14;;;;;;;15.20;5.60;;;12.70;99.90;;;;;;5053840;28;20197;-85
2021/10/07 02:22:40;;;;;;;14.37;5.40;;;12.70;99.90;;;;;;5053382;28;20165;-83
2021/10/07 02:25:08;;;;;;;12.00;5.17;;;12.80;99.90;;;;;;5053694;28;20173;-84
2021/10/07 02:27:34;;;;;;;11.30;5.70;;;12.50;99.90;;;;;;5053567;28;20691;-84
2021/10/07 02:29:59;;;;;;;11.50;4.90;;;12.50;99.90;;;;;;5052774;28;20235;-86
2021/10/07 02:32:25;;;;;;;11.30;5.77;;;12.50;99.90;;;;;;5053313;28;20177;-85
2021/10/07 02:34:51;;;;;;;12.87;5.73;;;12.50;99.90;;;;;;5052742;28;20223;-83
2021/10/07 02:37:17;;;;;;;11.57;5.37;;;12.50;99.90;;;;;;5052784;28;20212;-84
2021/10/07 02:39:43;;;;;;;13.50;5.70;;;12.50;99.90;;;;;;5064742;28;20181;-82
2021/10/07 02:42:08;;;;;;;10.23;5.57;;;12.30;99.90;;;;;;5067242;28;20177;-82
2021/10/07 02:44:35;;;;;;;11.60;5.23;;;12.20;99.90;;;;;;5053833;28;20247;-82
2021/10/07 02:47:06;;;;;;;12.07;5.53;;;12.20;99.90;;;;;;5053109;28;20217;-83
2021/10/07 02:49:38;;;;;;;11.30;5.77;;;12.40;99.90;;;;;;5053140;28;20764;-84
2021/10/07 02:52:04;;;;;;;11.97;5.60;;;12.40;99.90;;;;;;5053059;28;20180;-84
2021/10/07 02:54:30;;;;;;;13.60;5.37;;;12.30;99.90;;;;;;5051099;28;20648;-83
2021/10/07 02:56:55;;;;;;;14.83;6.33;;;12.60;99.90;;;;;;5052877;28;20211;-82
2021/10/07 02:59:21;;;;;;;15.83;6.10;;;12.50;99.90;;;;;;5054881;28;20665;-82
2021/10/07 03:01:47;;;;;;;12.50;5.63;;;12.50;99.90;;;;;;5058279;28;20691;-82
2021/10/07 03:04:13;;;;;;;14.20;6.10;;;12.30;99.90;;;;;;5055529;28;20177;-82
2021/10/07 03:06:38;;;;;;;12.70;5.93;;;12.10;99.90;;;;;;5053027;28;20174;-84
2021/10/07 03:09:04;;;;;;;10.97;5.93;;;12.10;99.90;;;;;;5052873;28;20235;-84
2021/10/07 03:11:30;;;;;;;9.77;5.40;;;12.10;99.90;;;;;;5051442;28;20181;-84
2021/10/07 03:13:56;;;;;;;11.17;5.97;;;12.40;99.90;;;;;;5053764;28;20188;-85
2021/10/07 03:16:21;;;;;;;12.50;5.47;;;12.30;99.90;;;;;;5052335;28;20177;-85
2021/10/07 03:18:47;;;;;;;11.80;5.30;;;12.30;99.90;;;;;;5053321;28;20188;-83
2021/10/07 03:21:13;;;;;;;12.10;5.53;;;12.40;99.90;;;;;;5051369;28;20292;-84
2021/10/07 03:23:39;;;;;;;9.70;5.13;;;12.40;99.90;;;;;;5052531;28;20375;-85
2021/10/07 03:26:04;;;;;;;14.23;5.80;;;12.30;99.90;;;;;;5052210;28;20526;-87
2021/10/07 03:28:30;;;;;;;10.40;5.37;;;12.30;99.90;;;;;;5052641;28;20649;-84
2021/10/07 03:30:56;;;;;;;13.50;5.90;;;12.30;99.90;;;;;;5051364;28;20276;-84
2021/10/07 03:33:22;;;;;;;10.13;5.83;;;12.10;99.90;;;;;;5052629;28;20268;-83
2021/10/07 03:35:47;;;;;;;11.17;5.43;;;12.00;99.90;;;;;;5052478;28;20208;-85
2021/10/07 03:38:13;;;;;;;10.93;5.60;;;11.90;99.90;;;;;;5051550;28;20234;-88
2021/10/07 03:40:39;;;;;;;11.83;5.47;;;11.90;99.90;;;;;;5052897;28;20173;-86
2021/10/07 03:43:05;;;;;;;11.57;5.17;;;11.90;99.90;;;;;;5052839;28;20177;-84
2021/10/07 03:45:31;;;;;;;13.40;6.10;;;11.90;99.90;;;;;;5052453;28;20648;-84
2021/10/07 03:47:56;;;;;;;12.47;5.67;;;11.90;99.90;;;;;;5053826;28;20216;-84
2021/10/07 03:50:22;;;;;;;11.97;5.93;;;11.90;99.90;;;;;;5057078;28;20177;-87
2021/10/07 03:52:48;;;;;;;12.93;6.60;;;12.00;99.90;;;;;;5058844;28;20200;-85
2021/10/07 03:55:14;;;;;;;11.57;5.83;;;12.00;99.90;;;;;;5056691;28;20252;-85
2021/10/07 03:57:40;;;;;;;10.57;6.03;;;12.20;99.90;;;;;;5056374;28;20188;-83
2021/10/07 04:00:12;;;;;;;15.47;6.73;;;12.20;99.90;;;;;;5055724;28;20675;-82
2021/10/07 04:02:38;;;;;;;11.30;6.60;;;12.20;99.90;;;;;;5057440;28;20180;-84
2021/10/07 04:05:05;;;;;;;12.27;6.07;;;12.30;99.90;;;;;;5055656;28;20205;-84
2021/10/07 04:07:31;;;;;;;9.33;5.80;;;12.30;99.90;;;;;;5055616;28;20275;-87
2021/10/07 04:09:57;;;;;;;12.27;6.20;;;12.30;99.90;;;;;;5059549;28;20176;-88
2021/10/07 04:12:22;;;;;;;11.80;6.10;;;12.30;99.90;;;;;;5058335;28;20660;-87
2021/10/07 04:14:49;;;;;;;13.50;6.70;;;12.30;99.90;;;;;;5057804;28;20177;-87
2021/10/07 04:17:15;;;;;;;12.43;6.33;;;12.10;99.90;;;;;;5057028;28;20169;-88
2021/10/07 04:19:41;;;;;;;9.13;6.17;;;12.20;99.90;;;;;;5057034;28;20259;-87
2021/10/07 04:22:07;;;;;;;17.13;6.60;;;12.20;99.90;;;;;;5056958;28;20204;-87
2021/10/07 04:24:32;;;;;;;11.33;5.90;;;12.00;99.90;;;;;;5056300;28;20230;-88
2021/10/07 04:26:58;;;;;;;9.63;5.27;;;11.90;99.90;;;;;;5054663;28;20258;-87
2021/10/07 04:29:24;;;;;;;13.30;5.87;;;11.90;99.90;;;;;;5055861;28;20186;-88
2021/10/07 04:31:50;;;;;;;13.00;6.53;;;12.00;99.90;;;;;;5055761;28;20629;-87
2021/10/07 04:34:18;;;;;;;9.70;6.00;;;11.80;99.90;;;;;;5054253;28;20181;-85
2021/10/07 04:36:44;;;;;;;10.93;6.27;;;11.80;99.90;;;;;;5054414;28;20207;-83
2021/10/07 04:39:10;;;;;;;10.37;6.53;;;11.80;99.90;;;;;;5054113;28;20189;-83
2021/10/07 04:41:38;;;;;;;11.53;6.37;;;11.70;99.90;;;;;;5055060;28;20526;-83
2021/10/07 04:44:04;;;;;;;12.07;6.30;;;11.70;99.90;;;;;;5053705;28;20220;-84
2021/10/07 04:46:30;;;;;;;12.73;6.17;;;11.80;99.90;;;;;;5053659;28;20209;-85
2021/10/07 04:48:56;;;;;;;13.97;6.63;;;11.60;99.90;;;;;;5055365;28;20219;-83
2021/10/07 04:51:22;;;;;;;13.37;7.00;;;11.60;99.90;;;;;;5055101;28;20169;-84
2021/10/07 04:53:48;;;;;;;10.57;6.40;;;11.60;99.90;;;;;;5055209;28;20272;-88
2021/10/07 04:56:13;;;;;;;16.30;7.70;;;11.50;99.90;;;;;;5055077;28;20505;-83
2021/10/07 04:58:39;;;;;;;12.23;7.00;;;11.60;99.90;;;;;;5053021;28;20326;-84
2021/10/07 05:01:05;;;;;;;11.83;6.73;;;11.60;99.90;;;;;;5055111;28;20219;-83
2021/10/07 05:03:30;;;;;;;10.20;6.50;;;11.60;99.90;;;;;;5054723;28;20235;-84
2021/10/07 05:05:56;;;;;;;10.43;7.10;;;11.60;99.90;;;;;;5054731;28;20177;-87
2021/10/07 05:08:22;;;;;;;11.13;7.07;;;11.50;99.90;;;;;;5054918;28;20574;-84
2021/10/07 05:10:48;;;;;;;16.53;7.23;;;11.40;99.90;;;;;;5054354;28;20238;-85
2021/10/07 05:13:17;;;;;;;11.13;6.93;;;11.30;99.90;;;;;;5054388;28;20251;-85
2021/10/07 05:15:43;;;;;;;15.93;8.07;;;11.30;99.90;;;;;;5055187;28;20170;-86
2021/10/07 05:18:08;;;;;;;12.03;7.77;;;11.40;99.90;;;;;;5067919;28;20169;-84
2021/10/07 05:20:34;;;;;;;11.33;6.83;;;11.50;99.90;;;;;;5070209;28;20236;-84
2021/10/07 05:23:00;;;;;;;14.30;8.10;;;11.60;99.90;;;;;;5059465;28;20181;-87
2021/10/07 05:25:25;;;;;;;12.63;7.67;;;11.40;99.90;;;;;;5054251;28;20563;-88
2021/10/07 05:27:51;;;;;;;13.40;7.43;;;11.50;99.90;;;;;;5055326;28;20201;-87
2021/10/07 05:30:17;;;;;;;9.80;7.70;;;11.40;99.90;;;;;;5055023;28;20648;-87
2021/10/07 05:32:43;;;;;;;11.90;7.20;;;11.50;99.90;;;;;;5055140;28;20641;-84
2021/10/07 05:35:09;;;;;;;11.37;7.43;;;11.50;99.90;;;;;;5061023;28;20165;-83
2021/10/07 05:37:34;;;;;;;12.80;7.20;;;11.70;99.90;;;;;;5078399;28;20184;-87
2021/10/07 05:40:00;;;;;;;15.07;7.70;;;11.70;99.90;;;;;;5062714;28;20659;-86
2021/10/07 05:42:26;;;;;;;11.90;8.23;;;11.50;99.90;;;;;;5055012;28;20177;-85
2021/10/07 05:44:51;;;;;;;13.63;7.90;;;11.70;99.90;;;;;;5053158;28;20181;-85
2021/10/07 05:47:17;;;;;;;12.30;7.73;;;11.50;99.90;;;;;;5054913;28;20197;-85
2021/10/07 05:49:43;;;;;;;15.27;7.77;;;11.50;99.90;;;;;;5053443;28;20608;-83
2021/10/07 05:52:09;;;;;;;14.97;8.30;;;11.30;99.90;;;;;;5063576;28;20185;-83
2021/10/07 05:54:35;;;;;;;13.43;7.90;;;11.30;99.90;;;;;;5056198;28;20213;-85
2021/10/07 05:57:00;;;;;;;13.37;7.73;;;11.40;99.90;;;;;;5045787;28;20292;-83
2021/10/07 05:59:26;;;;;;;15.23;8.30;;;11.50;99.90;;;;;;5051694;28;20217;-86
2021/10/07 06:01:52;;;;;;;11.90;7.77;;;11.50;99.90;;;;;;5048263;28;20556;-85
2021/10/07 06:04:18;;;;;;;14.03;8.23;;;11.40;99.90;;;;;;5054937;28;20625;-84
2021/10/07 06:06:50;;;;;;;15.80;8.50;;;11.40;99.90;;;;;;5036864;28;20181;-84
2021/10/07 06:09:17;;;;;;;10.97;8.23;;;11.40;99.90;;;;;;5049211;28;20207;-87
2021/10/07 06:11:44;;;;;;;13.43;8.40;;;11.40;99.90;;;;;;5049486;28;20173;-87
2021/10/07 06:14:10;;;;;;;13.50;8.90;;;11.30;99.90;;;;;;5047776;28;20267;-87
2021/10/07 06:16:39;;;;;;;13.73;8.10;;;11.20;99.90;;;;;;5041428;28;20169;-87
2021/10/07 06:19:09;;;;;;;12.23;8.53;;;11.20;99.90;;;;;;5050459;28;20177;-88
2021/10/07 06:21:38;;;;;;;15.60;9.03;;;11.20;99.90;;;;;;5044131;28;20211;-85
2021/10/07 06:24:04;;;;;;;13.97;8.60;;;11.20;99.90;;;;;;5042461;28;20181;-87
2021/10/07 06:26:30;;;;;;;15.03;8.80;;;11.20;99.90;;;;;;5054043;28;20173;-86
2021/10/07 06:29:06;;;;;;;14.07;9.03;;;11.20;99.90;;;;;;5054388;28;20280;-84
2021/10/07 06:31:34;;;;;;;15.23;9.20;;;11.30;99.90;;;;;;5054207;28;20295;-85
2021/10/07 06:34:00;;;;;;;14.47;8.90;;;11.40;99.90;;;;;;5055920;28;20201;-82
2021/10/07 06:36:26;;;;;;;14.50;8.80;;;11.40;99.90;;;;;;5053081;28;20169;-87
2021/10/07 06:38:51;;;;;;;17.03;9.40;;;11.50;99.90;;;;;;5053177;28;20621;-87
2021/10/07 06:41:18;;;;;;;11.60;8.33;;;11.30;99.90;;;;;;5053740;28;20633;-84
2021/10/07 06:43:48;;;;;;;13.83;9.27;;;11.30;99.90;;;;;;5053803;28;20172;-86
2021/10/07 06:46:15;;;;;;;15.13;8.77;;;11.40;99.90;;;;;;5052548;28;20215;-87
2021/10/07 06:48:41;;;;;;;15.30;9.00;;;11.40;99.90;;;;;;5052636;28;20251;-83
2021/10/07 06:51:10;;;;;;;13.57;9.57;;;11.40;99.90;;;;;;5052220;28;20193;-86
2021/10/07 06:53:37;;;;;;;15.07;9.60;;;11.40;99.90;;;;;;5053149;28;20185;-83
2021/10/07 06:56:04;;;;;;;16.07;9.97;;;11.40;99.90;;;;;;5052781;28;20656;-84
2021/10/07 06:58:30;;;;;;;17.77;9.37;;;11.40;99.90;;;;;;5054460;28;20176;-83
2021/10/07 07:00:56;;;;;;;13.67;10.20;;;11.50;99.90;;;;;;5053515;28;20185;-85
2021/10/07 07:03:21;;;;;;;17.70;10.33;;;11.60;99.90;;;;;;5053025;28;20177;-84
2021/10/07 07:05:47;;;;;;;17.13;9.90;;;11.80;99.90;;;;;;5052465;28;20184;-84
2021/10/07 07:08:13;;;;;;;16.80;10.33;;;11.80;99.90;;;;;;5053168;28;20212;-83
2021/10/07 07:10:38;;;;;;;15.73;10.07;;;12.00;99.90;;;;;;5052971;28;20265;-84
2021/10/07 07:13:06;;;;;;;16.47;9.63;;;12.10;99.90;;;;;;5052058;28;20311;-85
2021/10/07 07:15:32;;;;;;;14.77;9.70;;;12.20;99.90;;;;;;5052883;28;20203;-83
2021/10/07 07:17:58;;;;;;;18.33;10.20;;;12.50;99.90;;;;;;5053020;28;20227;-83
2021/10/07 07:20:25;;;;;;;17.50;9.87;;;12.30;99.90;;;;;;5052485;28;20193;-84
2021/10/07 07:22:51;;;;;;;14.93;10.13;;;12.30;99.90;;;;;;5053871;28;20212;-83
2021/10/07 07:25:17;;;;;;;14.63;9.13;;;12.40;99.90;;;;;;5056722;28;20601;-81
2021/10/07 07:27:43;;;;;;;15.93;9.57;;;12.40;99.90;;;;;;5056766;28;20224;-83
2021/10/07 07:30:10;;;;;;;14.73;9.23;;;12.50;99.90;;;;;;5057102;28;20185;-83
2021/10/07 07:32:36;;;;;;;16.50;9.50;;;12.50;99.90;;;;;;5055287;28;20189;-83
2021/10/07 07:35:02;;;;;;;13.30;9.47;;;12.80;99.90;;;;;;5055749;28;20181;-82
2021/10/07 07:37:28;;;;;;;14.03;10.43;;;12.60;99.90;;;;;;5056649;28;20540;-84
2021/10/07 07:39:53;;;;;;;18.93;11.77;;;12.70;99.90;;;;;;5054948;28;20195;-83
2021/10/07 07:42:20;;;;;;;19.13;12.53;;;12.70;99.90;;;;;;5054645;28;20208;-83
2021/10/07 07:44:46;;;;;;;16.17;10.77;;;12.90;99.90;;;;;;5056176;28;20173;-82
2021/10/07 07:47:11;;;;;;;17.57;11.27;;;13.00;99.90;;;;;;5056253;28;20218;-86
2021/10/07 07:49:39;;;;;;;19.27;10.63;;;13.00;99.90;;;;;;5056702;28;20260;-87
2021/10/07 07:52:05;;;;;;;15.33;10.80;;;13.00;99.90;;;;;;5055989;28;20185;-87
2021/10/07 07:54:31;;;;;;;13.30;10.63;;;13.00;99.90;;;;;;5057515;28;20181;-87
2021/10/07 07:56:57;;;;;;;15.43;10.37;;;13.00;99.90;;;;;;5056686;28;20192;-87
2021/10/07 07:59:23;;;;;;;17.97;10.10;;;13.00;99.90;;;;;;5060521;28;20180;-87
2021/10/07 08:01:49;;;;;;;16.07;11.13;;;13.10;99.90;;;;;;5063842;28;20181;-85
2021/10/07 08:04:15;;;;;;;13.13;10.20;;;13.30;99.90;;;;;;5062334;28;20181;-86
2021/10/07 08:06:40;;;;;;;14.90;10.07;;;13.40;99.90;;;;;;5062629;28;20177;-85
2021/10/07 08:09:09;;;;;;;15.57;10.53;;;13.40;99.90;;;;;;5067284;28;20210;-83
2021/10/07 08:11:37;;;;;;;14.93;10.30;;;13.60;99.90;;;;;;5070157;28;20256;-88
2021/10/07 08:14:03;;;;;;;14.87;10.60;;;13.70;99.90;;;;;;5057309;28;20160;-88
2021/10/07 08:16:29;;;;;;;16.13;11.57;;;13.80;99.90;;;;;;5056865;28;20205;-87
2021/10/07 08:18:55;;;;;;;13.67;11.60;;;14.00;99.90;;;;;;5056436;28;20170;-83
2021/10/07 08:21:21;;;;;;;16.63;11.70;;;14.00;99.90;;;;;;5054630;28;20208;-83
2021/10/07 08:23:48;;;;;;;13.33;10.37;;;14.10;99.90;;;;;;5056188;28;20160;-84
2021/10/07 08:26:15;;;;;;;18.33;11.50;;;14.20;99.90;;;;;;5059172;28;20653;-82
2021/10/07 08:28:40;;;;;;;15.90;10.83;;;14.40;99.90;;;;;;5061906;28;20214;-83
2021/10/07 08:31:06;;;;;;;17.60;13.20;;;14.50;99.90;;;;;;5063245;28;20243;-82
2021/10/07 08:33:32;;;;;;;18.90;15.23;;;14.70;99.90;;;;;;5063262;28;20197;-82
2021/10/07 08:35:58;;;;;;;15.90;10.70;;;14.80;99.90;;;;;;5055517;28;20162;-82
2021/10/07 08:38:26;;;;;;;14.27;11.10;;;14.90;99.90;;;;;;5055496;28;20175;-84
2021/10/07 08:40:53;;;;;;;12.47;11.00;;;15.10;99.90;;;;;;5054965;28;20625;-82
2021/10/07 08:43:19;;;;;;;13.20;10.63;;;15.20;99.50;;;;;;5055918;28;20696;-83
2021/10/07 08:45:45;;;;;;;15.10;10.80;;;15.20;99.40;;;;;;5057143;28;20166;-83
2021/10/07 08:48:18;;;;;;;16.03;11.40;;;15.30;99.30;;;;;;5055002;28;20216;-81
2021/10/07 08:50:45;;;;;;;12.43;11.17;;;15.50;98.80;;;;;;5055375;28;20184;-84
2021/10/07 08:53:11;;;;;;;15.07;11.23;;;15.60;98.60;;;;;;5055583;28;20204;-80
2021/10/07 08:55:37;;;;;;;14.40;10.60;;;15.60;98.50;;;;;;5055318;28;20698;-81
2021/10/07 08:58:03;;;;;;;13.47;10.23;;;15.60;98.40;;;;;;5055245;28;20280;-82
2021/10/07 09:00:29;;;;;;;14.17;10.90;;;15.60;98.30;;;;;;5055568;28;20190;-81
2021/10/07 09:02:56;;;;;;;11.87;10.20;;;15.80;97.70;;;;;;5054975;28;20177;-81
2021/10/07 09:05:24;;;;;;;17.97;10.70;;;15.80;97.90;;;;;;5055868;28;20260;-82
2021/10/07 09:08:00;;;;;;;14.00;10.33;;;15.90;97.30;;;;;;5055691;28;20286;-82
2021/10/07 09:10:44;;;;;;;13.23;9.50;;;16.00;97.30;;;;;;5054871;28;20173;-81
2021/10/07 09:13:22;;;;;;;12.70;9.97;;;16.10;97.00;;;;;;5056886;28;20181;-82
2021/10/07 09:15:50;;;;;;;13.87;9.33;;;16.10;96.60;;;;;;5057408;28;20315;-81
2021/10/07 09:18:18;;;;;;;13.07;9.00;;;16.10;96.10;;;;;;5057460;28;20202;-81
2021/10/07 09:20:48;;;;;;;14.50;11.47;;;16.10;96.40;;;;;;5057802;28;20193;-81
2021/10/07 09:23:33;;;;;;;15.20;7.50;;;16.10;96.50;;;;;;5054511;28;20169;-81
2021/10/07 09:26:06;;;;;;;13.57;8.87;;;16.10;96.30;;;;;;5054619;28;20350;-81
2021/10/07 09:28:58;;;;;;;11.37;7.77;;;16.30;96.30;;;;;;5055070;28;20201;-80
2021/10/07 09:31:32;;;;;;;14.93;8.57;;;16.30;94.60;;;;;;5054162;28;20180;-81
2021/10/07 09:34:05;;;;;;;12.50;6.07;;;16.40;94.90;;;;;;5054466;28;20168;-81
2021/10/07 09:36:31;;;;;;;10.10;5.87;;;16.40;94.00;;;;;;5055161;28;20188;-81
2021/10/07 09:38:58;;;;;;;9.93;5.23;;;16.50;94.30;;;;;;5052655;28;20185;-80
2021/10/07 09:41:31;;;;;;;12.17;6.13;;;16.30;93.10;;;;;;5053971;28;20182;-82
2021/10/07 09:44:06;;;;;;;10.83;5.90;;;16.40;92.90;;;;;;5053710;28;20262;-81
2021/10/07 09:46:41;;;;;;;11.60;6.00;;;16.50;92.30;;;;;;5054872;28;20176;-82
2021/10/07 09:49:09;;;;;;;11.33;6.23;;;16.50;92.60;;;;;;5054396;28;20188;-86
2021/10/07 09:51:51;;;;;;;8.90;6.73;;;16.70;92.10;;;;;;5055112;28;20177;-87
2021/10/07 09:54:25;;;;;;;10.63;7.10;;;16.70;91.90;;;;;;5054088;28;20181;-86
2021/10/07 09:57:02;;;;;;;14.70;7.27;;;16.70;91.50;;;;;;5055046;28;20196;-88
2021/10/07 09:59:31;;;;;;;10.67;7.13;;;16.60;91.40;;;;;;5069335;28;20185;-84
2021/10/07 10:01:59;;;;;;;10.57;6.90;;;16.80;91.60;;;;;;5067062;28;20170;-84
2021/10/07 10:04:26;;;;;;;12.97;7.27;;;16.70;91.60;;;;;;5059980;28;20177;-83
2021/10/07 10:06:55;;;;;;;9.93;6.93;;;16.80;92.00;;;;;;5052931;28;20247;-87
2021/10/07 10:09:25;;;;;;;11.70;7.40;;;16.80;92.30;;;;;;5052718;28;20482;-83
2021/10/07 10:11:59;;;;;;;11.47;7.93;;;16.90;91.60;;;;;;5053911;28;20204;-84
2021/10/07 10:14:24;;;;;;;14.93;7.93;;;17.00;90.70;;;;;;5057545;28;20172;-82
2021/10/07 10:16:53;;;;;;;10.17;7.30;;;17.00;90.40;;;;;;5063423;28;20260;-82
2021/10/07 10:19:19;;;;;;;10.70;7.40;;;16.90;90.70;;;;;;5068907;28;20176;-83
2021/10/07 10:21:45;;;;;;;11.97;6.83;;;17.00;91.30;;;;;;5056383;28;20239;-82
2021/10/07 10:24:13;;;;;;;12.53;7.60;;;17.10;91.60;;;;;;5053578;28;20545;-82
2021/10/07 10:26:40;;;;;;;14.50;6.73;;;17.20;91.50;;;;;;5053677;28;20618;-82
2021/10/07 10:29:22;;;;;;;9.17;3.90;;;17.30;90.60;;;;;;5053176;28;20180;-84
2021/10/07 10:31:52;;;;;;;11.63;4.87;;;16.90;86.30;;;;;;5053034;28;20622;-82
2021/10/07 10:34:22;;;;;;;9.63;5.07;;;16.70;90.20;;;;;;5053030;28;20227;-81
2021/10/07 10:36:52;;;;;;;7.93;3.50;;;16.40;91.90;;;;;;5052521;28;20188;-82
2021/10/07 10:39:25;;;;;;;6.83;3.73;;;16.40;91.40;;;;;;5052913;28;20165;-83
2021/10/07 10:42:16;;;;;;;8.40;4.20;;;16.40;90.80;;;;;;5053758;28;20617;-82
2021/10/07 10:44:52;;;;;;;7.77;3.67;;;16.40;91.00;;;;;;5054587;28;20184;-86
2021/10/07 10:47:27;;;;;;;7.73;3.93;;;16.50;91.10;;;;;;5060431;28;20246;-82
2021/10/07 10:50:00;;;;;;;13.47;4.80;;;16.70;90.90;;;;;;5062547;28;20177;-83
2021/10/07 10:52:27;;;;;;;8.90;3.97;;;16.90;89.40;;;;;;5061205;28;20668;-83
2021/10/07 10:55:05;;;;;;;11.43;4.20;;;17.00;87.80;;;;;;5051976;28;20180;-83
2021/10/07 10:57:35;;;;;;;8.80;3.60;;;17.10;87.50;;;;;;5056319;28;20202;-83
2021/10/07 11:00:09;;;;;;;10.80;3.77;;;16.90;85.30;;;;;;5059451;28;20173;-82
2021/10/07 11:02:37;;;;;;;6.70;3.87;;;16.70;88.50;;;;;;5059285;28;20591;-84
2021/10/07 11:05:27;;;;;;;7.43;3.90;;;16.60;88.40;;;;;;5058952;28;20180;-79
2021/10/07 11:08:22;;;;;;;9.97;3.70;;;16.60;90.00;;;;;;5058976;28;20256;-79
2021/10/07 11:10:50;;;;;;;8.73;3.87;;;16.70;89.10;;;;;;5050319;28;20188;-80
2021/10/07 11:13:21;;;;;;;8.80;3.80;;;16.80;89.20;;;;;;5057571;28;20177;-80
2021/10/07 11:15:54;;;;;;;13.20;4.87;;;16.90;88.90;;;;;;5059615;28;20200;-83
2021/10/07 11:18:21;;;;;;;11.77;3.93;;;16.80;88.00;;;;;;5059428;28;20201;-78
2021/10/07 11:20:55;;;;;;;9.30;4.23;;;16.60;89.00;;;;;;5058932;28;20197;-80
2021/10/07 11:23:21;;;;;;;7.77;3.80;;;16.70;90.00;;;;;;5059376;28;20602;-79
2021/10/07 11:25:54;;;;;;;6.23;4.10;;;16.70;87.20;;;;;;5068502;28;20230;-79
2021/10/07 11:28:35;;;;;;;9.43;3.70;;;16.60;88.40;;;;;;5059935;28;20216;-78
2021/10/07 11:31:12;;;;;;;10.70;3.93;;;16.70;90.30;;;;;;5059099;28;20169;-80
2021/10/07 11:33:40;;;;;;;8.80;4.53;;;17.00;88.60;;;;;;5059462;28;20180;-79
2021/10/07 11:36:09;;;;;;;6.93;3.80;;;17.10;86.50;;;;;;5058922;28;20177;-79
2021/10/07 11:38:41;;;;;;;7.77;3.60;;;17.00;80.70;;;;;;5058828;28;20213;-79
2021/10/07 11:41:08;;;;;;;8.13;4.03;;;17.20;81.40;;;;;;5066028;28;20173;-78
2021/10/07 11:43:35;;;;;;;8.73;3.83;;;17.30;79.90;;;;;;5060892;28;20506;-79
2021/10/07 11:46:07;;;;;;;10.53;4.20;;;17.40;79.00;;;;;;5058430;28;20197;-78
2021/10/07 11:48:33;;;;;;;6.93;4.10;;;17.60;74.30;;;;;;5059225;28;20200;-78
2021/10/07 11:51:03;;;;;;;8.83;3.97;;;17.80;69.80;;;;;;5058309;28;20177;-79
2021/10/07 11:53:40;;;;;;;8.10;3.87;;;17.80;68.80;;;;;;5058542;28;20207;-77
2021/10/07 11:56:12;;;;;;;12.33;4.53;;;17.80;70.60;;;;;;5056474;28;20180;-78
2021/10/07 11:58:38;;;;;;;9.63;4.90;;;18.00;66.40;;;;;;5057675;28;20189;-78
2021/10/07 12:01:05;;;;;;;9.03;4.83;;;17.80;67.10;;;;;;5058787;28;20705;-79
2021/10/07 12:03:33;;;;;;;8.27;4.30;;;17.90;67.30;;;;;;5058310;28;20173;-79
2021/10/07 12:06:05;;;;;;;12.07;4.73;;;17.90;64.60;;;;;;5058505;28;20173;-79
2021/10/07 12:08:35;;;;;;;8.80;4.17;;;17.90;61.70;;;;;;5056819;28;20240;-78
2021/10/07 12:11:07;;;;;;;10.37;4.80;;;18.00;62.70;;;;;;5055034;28;20284;-79
2021/10/07 12:13:35;;;;;;;7.80;3.77;;;18.10;58.20;;;;;;5055391;28;20173;-79
2021/10/07 12:16:07;;;;;;;10.83;4.60;;;18.20;61.10;;;;;;5055399;28;20180;-80
2021/10/07 12:18:35;;;;;;;8.20;4.40;;;18.20;62.10;;;;;;5055348;28;20284;-79
2021/10/07 12:21:06;;;;;;;7.93;4.00;;;18.10;60.00;;;;;;5055192;28;20225;-78
2021/10/07 12:23:45;;;;;;;7.47;4.10;;;18.20;58.60;;;;;;5053943;28;20185;-78
2021/10/07 12:26:12;;;;;;;7.17;3.70;;;18.30;58.80;;;;;;5053976;28;20177;-79
2021/10/07 12:28:44;;;;;;;7.40;4.37;;;18.30;58.30;;;;;;5055220;28;20269;-79
2021/10/07 12:31:10;;;;;;;8.50;3.73;;;18.40;58.80;;;;;;5054971;28;20173;-79
2021/10/07 12:33:35;;;;;;;9.47;4.60;;;18.60;58.10;;;;;;5055203;28;20542;-79
2021/10/07 12:36:07;;;;;;;10.60;4.50;;;18.70;55.60;;;;;;5054898;28;20702;-79
2021/10/07 12:38:54;;;;;;;10.87;4.10;;;18.70;57.60;;;;;;5054104;28;20510;-79
2021/10/07 12:41:34;;;;;;;10.57;4.73;;;18.80;57.90;;;;;;5055325;28;20181;-77
2021/10/07 12:44:00;;;;;;;11.63;4.40;;;18.80;58.50;;;;;;5055311;28;20176;-78
2021/10/07 12:46:27;;;;;;;11.47;4.87;;;18.80;55.70;;;;;;5055311;28;20652;-79